Estación de Casablanca

Ultimos registro cada 15 minutos 87
Estación Fecha / Hora Temperatura Humedad Lluvia Velocidad Dirección Radiación Presion
87 Casablanca 06-05-2026 21:30 11 99,7 0 0 227 0,6 992,6
86 Casablanca 06-05-2026 21:15 11,4 99,9 0 0 227 0,6 992,6
85 Casablanca 06-05-2026 21:00 11,5 100 0 0 227 0,6 992,6
84 Casablanca 06-05-2026 20:45 11,6 100 0 0 197 0,6 992,4
83 Casablanca 06-05-2026 20:30 11,7 100 0 0 195 0,6 992,4
82 Casablanca 06-05-2026 20:15 11,7 100 0 0 166 0,6 992,3
81 Casablanca 06-05-2026 20:00 11,6 100 0 0 205 0,6 992,1
80 Casablanca 06-05-2026 19:45 11,7 100 0 0 260 0,6 991,9
79 Casablanca 06-05-2026 19:30 11,8 100 0 0 248 0,6 991,9
78 Casablanca 06-05-2026 19:15 11,7 100 0 0 258 0,6 991,9
77 Casablanca 06-05-2026 19:00 11,9 100 0 0 264 0,6 991,7
76 Casablanca 06-05-2026 18:45 11,9 100 0 0 250 0,6 991,5
75 Casablanca 06-05-2026 18:30 12 100 0 0 233 0,6 991,2
74 Casablanca 06-05-2026 18:15 12 100 0 0,5 240 0,6 991,2
73 Casablanca 06-05-2026 18:00 11,9 100 0 0 248 3,1 991,1
72 Casablanca 06-05-2026 17:45 12,1 100 0 0 250 13,1 991
71 Casablanca 06-05-2026 17:30 12,2 100 0 0,5 267 24,4 991
70 Casablanca 06-05-2026 17:15 12,5 100 0 0 241 44,4 990,8
69 Casablanca 06-05-2026 17:00 12,5 100 0 0 232 48,1 990,7
68 Casablanca 06-05-2026 16:45 12,7 100 0,2 0 254 30,6 990,8
67 Casablanca 06-05-2026 16:30 12,7 100 0,2 0,5 251 30,6 990,6
66 Casablanca 06-05-2026 16:15 13,2 100 0 0,5 263 89,4 990,5
65 Casablanca 06-05-2026 16:00 13,4 100 0 0,5 279 76,9 990,6
64 Casablanca 06-05-2026 15:45 13,9 100 0 0,5 312 68,1 990,3
63 Casablanca 06-05-2026 15:30 14,3 100 0,2 0 313 80,6 990,2
62 Casablanca 06-05-2026 15:15 14,3 100 0,2 0 333 103,1 990
61 Casablanca 06-05-2026 15:00 14,2 100 0,2 0 8 68,1 990
60 Casablanca 06-05-2026 14:45 14,1 100 0,2 0 1 108,1 989,8
59 Casablanca 06-05-2026 14:30 14,2 100 1,6 0 354 153,1 989,6
58 Casablanca 06-05-2026 14:15 13,8 100 2 0 354 81,9 989,9
57 Casablanca 06-05-2026 14:00 14 100 0 0 8 41,9 989,9
56 Casablanca 06-05-2026 13:45 14,3 100 0 0 10 123,1 989,9
55 Casablanca 06-05-2026 13:30 14,1 99,9 1,4 0 1 94,4 989,9
54 Casablanca 06-05-2026 13:15 14,4 99,5 0,2 0 348 161,9 989,7
53 Casablanca 06-05-2026 13:00 14,3 99,9 0 0 341 108,1 989,9
52 Casablanca 06-05-2026 12:45 14 99,7 0,2 0 344 146,9 989,8
51 Casablanca 06-05-2026 12:30 13,7 99,5 0,2 0 354 121,9 989,9
50 Casablanca 06-05-2026 12:15 13,5 99,6 0 0 15 55,6 989,8
49 Casablanca 06-05-2026 12:00 13,2 99,7 0,2 0 10 144,4 989,6
48 Casablanca 06-05-2026 11:45 13 99,2 0,2 0 6 96,9 989,7
47 Casablanca 06-05-2026 11:30 12,7 99,3 0,8 0 1 49,4 989,7
46 Casablanca 06-05-2026 11:15 12,4 98,8 1,2 0 344 88,1 989,4
45 Casablanca 06-05-2026 11:00 12,6 97,3 0,6 0,5 7 69,4 989,4
44 Casablanca 06-05-2026 10:45 12,5 96,6 0,4 0,5 14 51,9 988,9
43 Casablanca 06-05-2026 10:30 12,8 95,7 0,2 0 7 66,9 988,8
42 Casablanca 06-05-2026 10:15 12,9 95,9 0,4 0 3 66,9 988,8
41 Casablanca 06-05-2026 10:00 13,6 89,1 0 0,5 14 23,1 988,5
40 Casablanca 06-05-2026 09:45 14,8 82 0 0 7 34,4 988,2
39 Casablanca 06-05-2026 09:30 15,2 81 0 0,5 21 193,1 988
38 Casablanca 06-05-2026 09:15 14,6 86,6 0 0 13 119,4 988,3
37 Casablanca 06-05-2026 09:00 14,6 88,7 0 0 350 106,9 988
36 Casablanca 06-05-2026 08:45 13,4 91,7 0 0 357 90,6 988
35 Casablanca 06-05-2026 08:30 13,8 88,4 0 0 15 30,6 987,8
34 Casablanca 06-05-2026 08:15 14,3 83,9 0 0 324 28,1 987,9
33 Casablanca 06-05-2026 08:00 13,7 86,6 0 0 306 69,4 987,6
32 Casablanca 06-05-2026 07:45 13,4 87,6 0 0 305 14,4 987,3
31 Casablanca 06-05-2026 07:30 12,8 90,5 0 0 345 1,9 987,4
30 Casablanca 06-05-2026 07:15 11,9 99 0 0 257 0,6 987,4
29 Casablanca 06-05-2026 07:00 11,1 100 0 0 211 0,6 987
28 Casablanca 06-05-2026 06:45 10,6 100 0 0 202 0,6 987
27 Casablanca 06-05-2026 06:30 10,3 100 0 0 219 0,6 987
26 Casablanca 06-05-2026 06:15 10 100 0 0 232 0,6 986,8
25 Casablanca 06-05-2026 06:00 9,3 100 0 0 227 0,6 986,7
24 Casablanca 06-05-2026 05:45 7,8 100 0 0 222 0,6 986,4
23 Casablanca 06-05-2026 05:30 6,8 100 0 0 211 0,6 986,2
22 Casablanca 06-05-2026 05:15 5,9 100 0 0 156 0,6 986,1
21 Casablanca 06-05-2026 05:00 5,9 100 0 0 129 0,6 986,1
20 Casablanca 06-05-2026 04:45 4,4 100 0 0 230 0,6 986,2
19 Casablanca 06-05-2026 04:30 5,1 100 0 0 237 0,6 986,4
18 Casablanca 06-05-2026 04:15 5,5 100 0 0 237 0,6 986,4
17 Casablanca 06-05-2026 04:00 5,9 100 0 0 237 0,6 986,1
16 Casablanca 06-05-2026 03:45 4,2 100 0 0 244 0,6 986,1
15 Casablanca 06-05-2026 03:30 5,1 100 0 0 248 0,6 986,3
14 Casablanca 06-05-2026 03:15 4,9 99,9 0 0 248 0,6 986,4
13 Casablanca 06-05-2026 03:00 5,3 100 0 0 263 0,6 986,3
12 Casablanca 06-05-2026 02:45 5,3 100 0 0 274 0,6 986,1
11 Casablanca 06-05-2026 02:30 5,5 99,7 0 0 274 0,6 985,9
10 Casablanca 06-05-2026 02:15 5,4 99,5 0 0 274 0,6 986
9 Casablanca 06-05-2026 02:00 6,2 99,6 0 0 274 0,6 986,2
8 Casablanca 06-05-2026 01:45 6,4 99,3 0 0 274 0,6 986,4
7 Casablanca 06-05-2026 01:30 6,5 98,7 0 0 274 0,6 986,2
6 Casablanca 06-05-2026 01:15 7,6 99,2 0 0 274 0,6 986,3
5 Casablanca 06-05-2026 01:00 6,8 98,8 0 0 274 0,6 986,5
4 Casablanca 06-05-2026 00:45 7,4 98,7 0 0 274 0,6 986,4
3 Casablanca 06-05-2026 00:30 7,8 98,5 0 0 274 0,6 986,7
2 Casablanca 06-05-2026 00:15 8,4 98,5 0 0 277 0,6 986,8
1 Casablanca 06-05-2026 00:00 8,3 98,5 0 0 298 0,6 986,8